sensor_id;sensor_type;location;lat;lon;timestamp;pressure;altitude;pressure_sealevel;temperature;humidity
73821;BME280;62150;43.582;1.456;2023-12-20T06:41:16;100995.91;;;10.59;100.00
73821;BME280;62150;43.582;1.456;2023-12-20T06:43:44;100994.00;;;10.67;100.00
73821;BME280;62150;43.582;1.456;2023-12-20T06:46:11;101000.81;;;10.68;100.00
73821;BME280;62150;43.582;1.456;2023-12-20T06:48:39;101010.41;;;10.61;100.00
73821;BME280;62150;43.582;1.456;2023-12-20T06:51:10;101009.63;;;10.92;100.00
73821;BME280;62150;43.582;1.456;2023-12-20T06:53:38;101013.31;;;10.82;100.00
73821;BME280;62150;43.582;1.456;2023-12-20T06:56:06;101019.28;;;10.82;100.00
73821;BME280;62150;43.582;1.456;2023-12-20T06:58:36;101021.53;;;10.94;100.00
73821;BME280;62150;43.582;1.456;2023-12-20T07:01:04;101022.22;;;11.01;100.00
73821;BME280;62150;43.582;1.456;2023-12-20T07:03:31;101034.28;;;10.99;100.00
73821;BME280;62150;43.582;1.456;2023-12-20T07:05:59;101021.00;;;11.14;100.00
73821;BME280;62150;43.582;1.456;2023-12-20T07:08:27;101035.16;;;10.98;100.00
73821;BME280;62150;43.582;1.456;2023-12-20T07:10:54;101050.16;;;10.81;100.00
73821;BME280;62150;43.582;1.456;2023-12-20T07:13:22;101048.16;;;11.24;100.00
73821;BME280;62150;43.582;1.456;2023-12-20T07:15:51;101054.75;;;11.03;100.00
73821;BME280;62150;43.582;1.456;2023-12-20T07:18:18;101065.28;;;10.93;100.00
73821;BME280;62150;43.582;1.456;2023-12-20T07:20:46;101074.44;;;11.04;100.00
73821;BME280;62150;43.582;1.456;2023-12-20T07:23:14;101081.91;;;11.12;100.00
73821;BME280;62150;43.582;1.456;2023-12-20T07:25:41;101083.75;;;11.08;100.00
73821;BME280;62150;43.582;1.456;2023-12-20T07:28:09;101096.72;;;11.04;100.00
73821;BME280;62150;43.582;1.456;2023-12-20T07:30:36;101090.72;;;11.03;100.00
73821;BME280;62150;43.582;1.456;2023-12-20T07:33:06;101089.97;;;11.00;100.00
73821;BME280;62150;43.582;1.456;2023-12-20T07:35:35;101108.69;;;11.05;100.00
73821;BME280;62150;43.582;1.456;2023-12-20T07:38:02;101102.50;;;11.12;100.00
73821;BME280;62150;43.582;1.456;2023-12-20T07:40:30;101109.31;;;11.13;100.00
73821;BME280;62150;43.582;1.456;2023-12-20T07:42:57;101109.91;;;11.24;100.00
73821;BME280;62150;43.582;1.456;2023-12-20T07:45:25;101129.19;;;11.08;100.00
73821;BME280;62150;43.582;1.456;2023-12-20T07:47:52;101120.19;;;11.24;100.00
73821;BME280;62150;43.582;1.456;2023-12-20T07:50:21;101120.91;;;10.97;100.00
73821;BME280;62150;43.582;1.456;2023-12-20T07:52:49;101151.56;;;11.04;100.00
73821;BME280;62150;43.582;1.456;2023-12-20T07:55:17;101141.88;;;11.14;100.00
73821;BME280;62150;43.582;1.456;2023-12-20T07:57:45;101152.66;;;10.94;100.00
73821;BME280;62150;43.582;1.456;2023-12-20T08:00:14;101156.69;;;11.06;100.00
73821;BME280;62150;43.582;1.456;2023-12-20T08:02:41;101162.38;;;10.82;100.00
73821;BME280;62150;43.582;1.456;2023-12-20T08:05:09;101166.78;;;10.77;100.00
73821;BME280;62150;43.582;1.456;2023-12-20T08:07:38;101182.31;;;10.73;100.00
73821;BME280;62150;43.582;1.456;2023-12-20T08:10:07;101193.16;;;10.85;100.00
73821;BME280;62150;43.582;1.456;2023-12-20T08:12:34;101181.63;;;11.02;100.00
73821;BME280;62150;43.582;1.456;2023-12-20T08:15:02;101196.50;;;10.51;100.00
73821;BME280;62150;43.582;1.456;2023-12-20T08:17:30;101197.84;;;10.69;100.00
73821;BME280;62150;43.582;1.456;2023-12-20T08:19:57;101204.81;;;10.62;100.00
73821;BME280;62150;43.582;1.456;2023-12-20T08:22:26;101208.50;;;10.51;100.00
73821;BME280;62150;43.582;1.456;2023-12-20T08:24:55;101218.88;;;10.85;100.00
73821;BME280;62150;43.582;1.456;2023-12-20T08:27:22;101213.91;;;10.77;100.00
73821;BME280;62150;43.582;1.456;2023-12-20T08:29:50;101222.06;;;10.57;100.00
73821;BME280;62150;43.582;1.456;2023-12-20T08:32:17;101225.97;;;11.11;100.00
73821;BME280;62150;43.582;1.456;2023-12-20T08:34:45;101227.59;;;10.78;100.00
73821;BME280;62150;43.582;1.456;2023-12-20T08:37:12;101237.63;;;10.90;100.00
73821;BME280;62150;43.582;1.456;2023-12-20T08:39:40;101238.56;;;11.21;100.00
73821;BME280;62150;43.582;1.456;2023-12-20T08:42:08;101247.66;;;11.36;100.00
73821;BME280;62150;43.582;1.456;2023-12-20T08:44:36;101251.13;;;10.99;100.00
73821;BME280;62150;43.582;1.456;2023-12-20T08:47:04;101264.97;;;11.29;100.00
73821;BME280;62150;43.582;1.456;2023-12-20T08:49:32;101266.38;;;11.07;100.00
73821;BME280;62150;43.582;1.456;2023-12-20T08:51:59;101268.53;;;10.87;100.00
73821;BME280;62150;43.582;1.456;2023-12-20T08:54:27;101275.22;;;10.94;100.00
73821;BME280;62150;43.582;1.456;2023-12-20T08:56:54;101269.28;;;10.92;100.00
73821;BME280;62150;43.582;1.456;2023-12-20T08:59:23;101285.59;;;10.91;100.00
73821;BME280;62150;43.582;1.456;2023-12-20T09:01:51;101282.91;;;10.95;100.00
73821;BME280;62150;43.582;1.456;2023-12-20T09:04:20;101281.31;;;10.90;100.00
73821;BME280;62150;43.582;1.456;2023-12-20T09:06:48;101294.09;;;10.93;100.00
73821;BME280;62150;43.582;1.456;2023-12-20T09:09:15;101289.03;;;11.27;100.00
73821;BME280;62150;43.582;1.456;2023-12-20T09:11:43;101296.22;;;11.13;100.00
73821;BME280;62150;43.582;1.456;2023-12-20T09:14:12;101302.81;;;10.86;100.00
73821;BME280;62150;43.582;1.456;2023-12-20T09:16:41;101314.06;;;11.20;100.00
73821;BME280;62150;43.582;1.456;2023-12-20T09:19:09;101313.22;;;11.20;100.00
73821;BME280;62150;43.582;1.456;2023-12-20T09:21:36;101321.50;;;10.94;100.00
73821;BME280;62150;43.582;1.456;2023-12-20T09:24:04;101337.47;;;10.69;100.00
73821;BME280;62150;43.582;1.456;2023-12-20T09:26:32;101334.94;;;11.08;100.00
73821;BME280;62150;43.582;1.456;2023-12-20T09:28:59;101339.16;;;11.09;100.00
73821;BME280;62150;43.582;1.456;2023-12-20T09:31:27;101344.66;;;11.32;100.00
73821;BME280;62150;43.582;1.456;2023-12-20T09:33:55;101347.91;;;11.40;100.00
73821;BME280;62150;43.582;1.456;2023-12-20T09:36:23;101346.38;;;11.32;100.00
73821;BME280;62150;43.582;1.456;2023-12-20T09:38:50;101344.91;;;11.20;100.00
73821;BME280;62150;43.582;1.456;2023-12-20T09:41:18;101351.31;;;11.41;100.00
73821;BME280;62150;43.582;1.456;2023-12-20T09:43:46;101358.81;;;11.50;100.00
73821;BME280;62150;43.582;1.456;2023-12-20T09:46:18;101360.91;;;11.34;100.00
73821;BME280;62150;43.582;1.456;2023-12-20T09:48:50;101351.81;;;11.18;100.00
73821;BME280;62150;43.582;1.456;2023-12-20T09:51:20;101348.38;;;11.19;100.00
73821;BME280;62150;43.582;1.456;2023-12-20T09:53:48;101349.22;;;11.20;100.00
73821;BME280;62150;43.582;1.456;2023-12-20T09:56:16;101350.19;;;11.14;100.00
73821;BME280;62150;43.582;1.456;2023-12-20T09:58:43;101351.34;;;11.39;100.00
73821;BME280;62150;43.582;1.456;2023-12-20T10:01:11;101353.91;;;11.02;100.00
73821;BME280;62150;43.582;1.456;2023-12-20T10:03:40;101356.50;;;11.39;100.00
73821;BME280;62150;43.582;1.456;2023-12-20T10:06:08;101359.28;;;11.30;100.00
73821;BME280;62150;43.582;1.456;2023-12-20T10:08:38;101354.56;;;11.48;100.00
73821;BME280;62150;43.582;1.456;2023-12-20T10:11:05;101358.47;;;11.65;100.00
73821;BME280;62150;43.582;1.456;2023-12-20T10:13:34;101360.16;;;11.66;100.00
73821;BME280;62150;43.582;1.456;2023-12-20T10:16:01;101360.28;;;11.60;100.00
73821;BME280;62150;43.582;1.456;2023-12-20T10:18:30;101358.06;;;11.45;100.00
73821;BME280;62150;43.582;1.456;2023-12-20T10:20:57;101364.41;;;11.30;100.00
73821;BME280;62150;43.582;1.456;2023-12-20T10:23:25;101366.28;;;11.24;100.00
73821;BME280;62150;43.582;1.456;2023-12-20T10:25:58;101370.91;;;11.47;100.00
73821;BME280;62150;43.582;1.456;2023-12-20T10:28:26;101369.91;;;11.52;100.00
73821;BME280;62150;43.582;1.456;2023-12-20T10:30:55;101361.66;;;11.75;100.00
73821;BME280;62150;43.582;1.456;2023-12-20T10:33:27;101351.44;;;11.72;100.00
73821;BME280;62150;43.582;1.456;2023-12-20T10:35:55;101354.69;;;11.80;100.00
73821;BME280;62150;43.582;1.456;2023-12-20T10:38:23;101351.00;;;11.90;100.00
73821;BME280;62150;43.582;1.456;2023-12-20T10:40:56;101346.31;;;11.70;100.00
73821;BME280;62150;43.582;1.456;2023-12-20T10:43:25;101343.84;;;11.66;100.00
73821;BME280;62150;43.582;1.456;2023-12-20T10:45:53;101343.38;;;11.86;100.00
73821;BME280;62150;43.582;1.456;2023-12-20T10:48:23;101338.78;;;11.63;100.00
73821;BME280;62150;43.582;1.456;2023-12-20T10:50:56;101341.91;;;11.75;100.00
73821;BME280;62150;43.582;1.456;2023-12-20T10:53:25;101332.34;;;11.81;100.00
73821;BME280;62150;43.582;1.456;2023-12-20T10:55:55;101335.38;;;11.62;100.00
73821;BME280;62150;43.582;1.456;2023-12-20T10:58:25;101330.41;;;11.55;100.00
73821;BME280;62150;43.582;1.456;2023-12-20T11:00:57;101331.84;;;11.66;100.00
73821;BME280;62150;43.582;1.456;2023-12-20T11:03:28;101331.72;;;11.71;100.00
73821;BME280;62150;43.582;1.456;2023-12-20T11:06:03;101336.81;;;11.74;100.00
73821;BME280;62150;43.582;1.456;2023-12-20T11:08:36;101338.78;;;11.63;100.00
73821;BME280;62150;43.582;1.456;2023-12-20T11:11:09;101326.47;;;11.77;100.00
73821;BME280;62150;43.582;1.456;2023-12-20T11:13:44;101333.44;;;11.70;100.00
73821;BME280;62150;43.582;1.456;2023-12-20T11:16:15;101331.25;;;11.55;100.00
73821;BME280;62150;43.582;1.456;2023-12-20T11:18:41;101323.47;;;11.57;100.00
73821;BME280;62150;43.582;1.456;2023-12-20T11:21:11;101326.94;;;11.56;100.00
73821;BME280;62150;43.582;1.456;2023-12-20T11:23:43;101323.28;;;11.29;100.00
73821;BME280;62150;43.582;1.456;2023-12-20T11:26:10;101324.41;;;11.90;100.00
73821;BME280;62150;43.582;1.456;2023-12-20T11:28:37;101314.81;;;11.61;100.00
73821;BME280;62150;43.582;1.456;2023-12-20T11:31:06;101325.97;;;11.95;100.00
73821;BME280;62150;43.582;1.456;2023-12-20T11:33:38;101313.22;;;11.91;100.00
73821;BME280;62150;43.582;1.456;2023-12-20T11:36:14;101318.22;;;11.97;100.00
73821;BME280;62150;43.582;1.456;2023-12-20T11:38:55;101315.28;;;11.78;100.00
73821;BME280;62150;43.582;1.456;2023-12-20T11:41:23;101316.78;;;11.85;100.00
73821;BME280;62150;43.582;1.456;2023-12-20T11:43:53;101303.88;;;11.51;100.00
73821;BME280;62150;43.582;1.456;2023-12-20T11:46:23;101298.25;;;11.71;100.00
73821;BME280;62150;43.582;1.456;2023-12-20T11:48:51;101299.94;;;11.72;100.00
73821;BME280;62150;43.582;1.456;2023-12-20T11:51:18;101296.88;;;11.22;100.00
73821;BME280;62150;43.582;1.456;2023-12-20T11:53:52;101292.81;;;11.83;100.00
73821;BME280;62150;43.582;1.456;2023-12-20T11:56:20;101291.56;;;11.98;100.00
73821;BME280;62150;43.582;1.456;2023-12-20T11:58:47;101279.91;;;11.49;100.00
73821;BME280;62150;43.582;1.456;2023-12-20T12:01:15;101280.16;;;11.74;100.00
73821;BME280;62150;43.582;1.456;2023-12-20T12:03:44;101281.13;;;12.04;100.00
73821;BME280;62150;43.582;1.456;2023-12-20T12:06:11;101280.06;;;11.79;100.00
73821;BME280;62150;43.582;1.456;2023-12-20T12:08:39;101279.31;;;12.07;100.00
73821;BME280;62150;43.582;1.456;2023-12-20T12:11:08;101288.47;;;11.85;100.00
73821;BME280;62150;43.582;1.456;2023-12-20T12:13:36;101290.84;;;11.59;100.00
73821;BME280;62150;43.582;1.456;2023-12-20T12:16:05;101293.84;;;11.76;100.00
73821;BME280;62150;43.582;1.456;2023-12-20T12:18:32;101289.00;;;11.64;100.00
73821;BME280;62150;43.582;1.456;2023-12-20T12:21:02;101292.59;;;11.57;100.00
73821;BME280;62150;43.582;1.456;2023-12-20T12:23:30;101289.47;;;11.80;100.00
73821;BME280;62150;43.582;1.456;2023-12-20T12:25:57;101291.94;;;11.84;100.00
73821;BME280;62150;43.582;1.456;2023-12-20T12:28:26;101292.75;;;11.51;100.00
73821;BME280;62150;43.582;1.456;2023-12-20T12:30:58;101292.66;;;11.54;100.00
73821;BME280;62150;43.582;1.456;2023-12-20T12:33:26;101295.50;;;11.79;100.00
73821;BME280;62150;43.582;1.456;2023-12-20T12:35:54;101292.56;;;11.58;100.00
73821;BME280;62150;43.582;1.456;2023-12-20T12:38:24;101296.34;;;11.79;100.00
73821;BME280;62150;43.582;1.456;2023-12-20T12:40:52;101300.22;;;11.95;100.00
73821;BME280;62150;43.582;1.456;2023-12-20T12:43:20;101307.69;;;12.06;100.00
73821;BME280;62150;43.582;1.456;2023-12-20T12:45:49;101310.69;;;11.89;100.00
73821;BME280;62150;43.582;1.456;2023-12-20T12:48:16;101325.09;;;11.61;100.00
73821;BME280;62150;43.582;1.456;2023-12-20T12:50:45;101318.97;;;11.31;100.00
73821;BME280;62150;43.582;1.456;2023-12-20T12:53:12;101311.13;;;11.71;100.00
73821;BME280;62150;43.582;1.456;2023-12-20T12:55:41;101321.66;;;11.25;100.00
73821;BME280;62150;43.582;1.456;2023-12-20T12:58:08;101322.09;;;11.06;100.00
73821;BME280;62150;43.582;1.456;2023-12-20T13:00:36;101324.81;;;11.37;100.00
73821;BME280;62150;43.582;1.456;2023-12-20T13:03:04;101323.06;;;11.01;100.00
73821;BME280;62150;43.582;1.456;2023-12-20T13:05:31;101325.06;;;11.27;100.00
73821;BME280;62150;43.582;1.456;2023-12-20T13:07:59;101328.09;;;11.07;100.00
73821;BME280;62150;43.582;1.456;2023-12-20T13:10:26;101310.72;;;11.52;100.00
73821;BME280;62150;43.582;1.456;2023-12-20T13:12:55;101304.88;;;11.46;100.00
73821;BME280;62150;43.582;1.456;2023-12-20T13:15:23;101309.28;;;11.42;100.00
73821;BME280;62150;43.582;1.456;2023-12-20T13:17:50;101301.81;;;11.31;100.00
73821;BME280;62150;43.582;1.456;2023-12-20T13:20:18;101309.28;;;11.78;100.00
73821;BME280;62150;43.582;1.456;2023-12-20T13:22:45;101316.22;;;11.38;100.00
73821;BME280;62150;43.582;1.456;2023-12-20T13:25:13;101307.53;;;11.43;100.00
73821;BME280;62150;43.582;1.456;2023-12-20T13:27:41;101325.78;;;11.69;100.00
73821;BME280;62150;43.582;1.456;2023-12-20T13:30:11;101324.84;;;11.71;100.00
73821;BME280;62150;43.582;1.456;2023-12-20T13:32:39;101325.97;;;11.95;100.00
73821;BME280;62150;43.582;1.456;2023-12-20T13:35:07;101324.00;;;11.71;100.00
73821;BME280;62150;43.582;1.456;2023-12-20T13:37:35;101329.44;;;11.59;100.00
73821;BME280;62150;43.582;1.456;2023-12-20T13:40:03;101338.56;;;11.72;100.00
73821;BME280;62150;43.582;1.456;2023-12-20T13:42:30;101341.41;;;11.97;100.00
73821;BME280;62150;43.582;1.456;2023-12-20T13:44:58;101342.91;;;11.70;100.00
73821;BME280;62150;43.582;1.456;2023-12-20T13:47:27;101333.34;;;11.75;100.00
73821;BME280;62150;43.582;1.456;2023-12-20T13:49:55;101341.94;;;11.38;100.00
73821;BME280;62150;43.582;1.456;2023-12-20T13:52:23;101338.88;;;11.58;100.00
73821;BME280;62150;43.582;1.456;2023-12-20T13:54:50;101335.06;;;11.74;100.00
73821;BME280;62150;43.582;1.456;2023-12-20T13:57:18;101332.56;;;11.71;100.00
73821;BME280;62150;43.582;1.456;2023-12-20T13:59:45;101337.19;;;11.93;100.00
73821;BME280;62150;43.582;1.456;2023-12-20T14:02:13;101329.59;;;11.88;100.00
73821;BME280;62150;43.582;1.456;2023-12-20T14:04:42;101336.50;;;11.86;100.00
73821;BME280;62150;43.582;1.456;2023-12-20T14:07:10;101340.53;;;11.61;100.00
73821;BME280;62150;43.582;1.456;2023-12-20T14:09:37;101340.59;;;11.59;100.00
73821;BME280;62150;43.582;1.456;2023-12-20T14:12:06;101336.50;;;11.86;100.00
73821;BME280;62150;43.582;1.456;2023-12-20T14:14:32;101331.44;;;11.83;100.00
73821;BME280;62150;43.582;1.456;2023-12-20T14:17:00;101334.66;;;11.56;100.00
73821;BME280;62150;43.582;1.456;2023-12-20T14:19:27;101332.50;;;11.74;100.00
73821;BME280;62150;43.582;1.456;2023-12-20T14:21:56;101337.69;;;11.73;100.00
73821;BME280;62150;43.582;1.456;2023-12-20T14:24:27;101329.88;;;11.76;100.00
73821;BME280;62150;43.582;1.456;2023-12-20T14:26:54;101326.88;;;11.94;100.00
73821;BME280;62150;43.582;1.456;2023-12-20T14:29:22;101324.59;;;11.82;100.00
73821;BME280;62150;43.582;1.456;2023-12-20T14:31:49;101334.34;;;11.69;100.00
73821;BME280;62150;43.582;1.456;2023-12-20T14:34:17;101328.19;;;11.39;100.00
73821;BME280;62150;43.582;1.456;2023-12-20T14:36:44;101341.53;;;11.55;100.00
73821;BME280;62150;43.582;1.456;2023-12-20T14:39:13;101338.84;;;11.60;100.00
73821;BME280;62150;43.582;1.456;2023-12-20T14:41:42;101341.00;;;11.43;100.00
73821;BME280;62150;43.582;1.456;2023-12-20T14:44:09;101345.13;;;11.11;100.00
73821;BME280;62150;43.582;1.456;2023-12-20T14:46:37;101343.28;;;11.16;100.00
73821;BME280;62150;43.582;1.456;2023-12-20T14:49:05;101342.97;;;11.31;100.00
73821;BME280;62150;43.582;1.456;2023-12-20T14:51:33;101351.75;;;11.58;100.00
73821;BME280;62150;43.582;1.456;2023-12-20T14:54:02;101340.59;;;11.22;100.00
73821;BME280;62150;43.582;1.456;2023-12-20T14:56:31;101349.16;;;10.83;100.00
73821;BME280;62150;43.582;1.456;2023-12-20T14:58:59;101354.22;;;11.26;100.00
73821;BME280;62150;43.582;1.456;2023-12-20T15:01:26;101353.66;;;11.13;100.00
73821;BME280;62150;43.582;1.456;2023-12-20T15:03:54;101372.41;;;11.18;100.00
73821;BME280;62150;43.582;1.456;2023-12-20T15:06:22;101367.00;;;11.30;100.00
73821;BME280;62150;43.582;1.456;2023-12-20T15:08:51;101355.31;;;11.16;100.00
73821;BME280;62150;43.582;1.456;2023-12-20T15:11:19;101355.16;;;11.23;100.00
73821;BME280;62150;43.582;1.456;2023-12-20T15:13:48;101360.50;;;11.51;100.00
73821;BME280;62150;43.582;1.456;2023-12-20T15:16:21;101359.09;;;11.38;100.00
73821;BME280;62150;43.582;1.456;2023-12-20T15:18:48;101356.28;;;10.71;100.00
73821;BME280;62150;43.582;1.456;2023-12-20T15:21:16;101356.75;;;11.29;100.00
73821;BME280;62150;43.582;1.456;2023-12-20T15:23:44;101374.31;;;11.47;100.00
73821;BME280;62150;43.582;1.456;2023-12-20T15:26:19;101360.91;;;10.96;100.00
73821;BME280;62150;43.582;1.456;2023-12-20T15:28:48;101362.91;;;11.22;100.00
73821;BME280;62150;43.582;1.456;2023-12-20T15:31:15;101375.59;;;11.66;100.00
73821;BME280;62150;43.582;1.456;2023-12-20T15:33:43;101374.59;;;10.96;100.00
73821;BME280;62150;43.582;1.456;2023-12-20T15:36:11;101365.75;;;11.47;100.00
73821;BME280;62150;43.582;1.456;2023-12-20T15:38:38;101368.75;;;11.28;100.00
73821;BME280;62150;43.582;1.456;2023-12-20T15:41:06;101371.91;;;11.02;100.00
73821;BME280;62150;43.582;1.456;2023-12-20T15:43:35;101373.00;;;10.91;100.00
73821;BME280;62150;43.582;1.456;2023-12-20T15:46:04;101374.03;;;11.22;100.00
73821;BME280;62150;43.582;1.456;2023-12-20T15:48:32;101370.94;;;11.08;100.00
73821;BME280;62150;43.582;1.456;2023-12-20T15:51:03;101372.53;;;11.12;100.00
73821;BME280;62150;43.582;1.456;2023-12-20T15:53:31;101379.09;;;11.25;100.00
73821;BME280;62150;43.582;1.456;2023-12-20T15:55:58;101369.00;;;11.16;100.00
73821;BME280;62150;43.582;1.456;2023-12-20T15:58:26;101375.47;;;10.95;100.00
73821;BME280;62150;43.582;1.456;2023-12-20T16:00:54;101374.47;;;11.02;100.00
73821;BME280;62150;43.582;1.456;2023-12-20T16:03:23;101385.59;;;11.03;100.00
73821;BME280;62150;43.582;1.456;2023-12-20T16:05:50;101378.19;;;10.88;100.00
73821;BME280;62150;43.582;1.456;2023-12-20T16:08:18;101383.78;;;10.66;100.00
73821;BME280;62150;43.582;1.456;2023-12-20T16:10:46;101372.94;;;11.32;100.00
73821;BME280;62150;43.582;1.456;2023-12-20T16:13:13;101376.25;;;10.99;100.00
73821;BME280;62150;43.582;1.456;2023-12-20T16:15:41;101356.28;;;11.10;100.00
73821;BME280;62150;43.582;1.456;2023-12-20T16:18:09;101351.66;;;10.86;100.00
73821;BME280;62150;43.582;1.456;2023-12-20T16:20:38;101354.81;;;11.38;100.00
73821;BME280;62150;43.582;1.456;2023-12-20T16:23:07;101360.63;;;11.45;100.00
73821;BME280;62150;43.582;1.456;2023-12-20T16:25:36;101355.34;;;11.14;100.00
73821;BME280;62150;43.582;1.456;2023-12-20T16:28:04;101360.44;;;11.16;100.00
73821;BME280;62150;43.582;1.456;2023-12-20T16:30:32;101370.34;;;10.95;100.00
73821;BME280;62150;43.582;1.456;2023-12-20T16:33:02;101372.66;;;11.45;100.00
73821;BME280;62150;43.582;1.456;2023-12-20T16:35:30;101368.50;;;11.40;100.00
73821;BME280;62150;43.582;1.456;2023-12-20T16:37:59;101370.94;;;11.08;100.00
73821;BME280;62150;43.582;1.456;2023-12-20T16:40:26;101375.03;;;11.15;100.00
73821;BME280;62150;43.582;1.456;2023-12-20T16:42:54;101381.91;;;11.15;100.00
73821;BME280;62150;43.582;1.456;2023-12-20T16:45:22;101360.25;;;10.85;100.00
73821;BME280;62150;43.582;1.456;2023-12-20T16:47:50;101359.72;;;10.70;100.00
73821;BME280;62150;43.582;1.456;2023-12-20T16:50:17;101369.00;;;10.33;100.00
73821;BME280;62150;43.582;1.456;2023-12-20T16:52:45;101372.97;;;10.01;100.00
73821;BME280;62150;43.582;1.456;2023-12-20T16:55:18;101372.84;;;10.55;100.00
73821;BME280;62150;43.582;1.456;2023-12-20T16:57:46;101372.50;;;10.29;100.00
73821;BME280;62150;43.582;1.456;2023-12-20T17:00:15;101381.25;;;10.65;100.00
73821;BME280;62150;43.582;1.456;2023-12-20T17:02:43;101375.78;;;10.80;100.00
73821;BME280;62150;43.582;1.456;2023-12-20T17:05:10;101380.75;;;10.45;100.00
73821;BME280;62150;43.582;1.456;2023-12-20T17:07:38;101384.78;;;10.08;100.00
73821;BME280;62150;43.582;1.456;2023-12-20T17:10:07;101378.13;;;10.48;100.00
73821;BME280;62150;43.582;1.456;2023-12-20T17:12:36;101366.63;;;10.22;100.00
73821;BME280;62150;43.582;1.456;2023-12-20T17:15:04;101365.34;;;10.45;100.00
73821;BME280;62150;43.582;1.456;2023-12-20T17:17:32;101369.94;;;10.29;100.00
73821;BME280;62150;43.582;1.456;2023-12-20T17:20:00;101374.56;;;10.05;100.00
73821;BME280;62150;43.582;1.456;2023-12-20T17:22:27;101362.22;;;10.29;100.00
73821;BME280;62150;43.582;1.456;2023-12-20T17:24:55;101363.78;;;9.87;100.00
73821;BME280;62150;43.582;1.456;2023-12-20T17:27:22;101357.88;;;10.32;100.00
73821;BME280;62150;43.582;1.456;2023-12-20T17:29:51;101355.03;;;9.98;100.00
73821;BME280;62150;43.582;1.456;2023-12-20T17:32:19;101364.00;;;9.73;100.00
73821;BME280;62150;43.582;1.456;2023-12-20T17:34:47;101362.53;;;9.58;100.00
73821;BME280;62150;43.582;1.456;2023-12-20T17:37:15;101358.66;;;9.87;100.00
73821;BME280;62150;43.582;1.456;2023-12-20T17:39:42;101364.72;;;9.81;100.00
73821;BME280;62150;43.582;1.456;2023-12-20T17:42:10;101371.66;;;9.74;100.00
73821;BME280;62150;43.582;1.456;2023-12-20T17:44:39;101370.50;;;9.95;100.00
73821;BME280;62150;43.582;1.456;2023-12-20T17:47:08;101376.78;;;9.76;100.00
73821;BME280;62150;43.582;1.456;2023-12-20T17:49:35;101373.56;;;9.65;100.00
73821;BME280;62150;43.582;1.456;2023-12-20T17:52:03;101378.88;;;9.53;100.00
73821;BME280;62150;43.582;1.456;2023-12-20T17:54:32;101380.38;;;9.66;100.00
73821;BME280;62150;43.582;1.456;2023-12-20T17:56:59;101381.44;;;9.53;100.00
73821;BME280;62150;43.582;1.456;2023-12-20T17:59:27;101379.47;;;9.70;100.00
73821;BME280;62150;43.582;1.456;2023-12-20T18:01:54;101382.84;;;9.72;100.00
73821;BME280;62150;43.582;1.456;2023-12-20T18:04:24;101387.75;;;9.86;100.00
73821;BME280;62150;43.582;1.456;2023-12-20T18:06:52;101388.78;;;9.74;100.00
73821;BME280;62150;43.582;1.456;2023-12-20T18:09:20;101394.69;;;9.81;100.00
73821;BME280;62150;43.582;1.456;2023-12-20T18:11:48;101386.47;;;9.59;100.00
73821;BME280;62150;43.582;1.456;2023-12-20T18:14:16;101380.94;;;9.29;100.00
73821;BME280;62150;43.582;1.456;2023-12-20T18:16:43;101395.69;;;9.70;100.00
73821;BME280;62150;43.582;1.456;2023-12-20T18:19:11;101378.84;;;10.06;100.00
73821;BME280;62150;43.582;1.456;2023-12-20T18:21:40;101379.13;;;9.90;100.00
73821;BME280;62150;43.582;1.456;2023-12-20T18:24:07;101380.72;;;9.98;100.00
73821;BME280;62150;43.582;1.456;2023-12-20T18:26:35;101377.84;;;9.64;100.00
73821;BME280;62150;43.582;1.456;2023-12-20T18:29:04;101375.53;;;10.49;100.00
73821;BME280;62150;43.582;1.456;2023-12-20T18:31:32;101373.69;;;10.06;100.00
73821;BME280;62150;43.582;1.456;2023-12-20T18:33:59;101377.53;;;10.35;100.00
73821;BME280;62150;43.582;1.456;2023-12-20T18:36:27;101385.88;;;9.97;100.00
73821;BME280;62150;43.582;1.456;2023-12-20T18:38:56;101385.63;;;10.11;100.00
73821;BME280;62150;43.582;1.456;2023-12-20T18:41:24;101390.91;;;10.03;100.00
73821;BME280;62150;43.582;1.456;2023-12-20T18:43:50;101381.78;;;9.85;100.00
73821;BME280;62150;43.582;1.456;2023-12-20T18:46:18;101396.91;;;10.03;100.00
73821;BME280;62150;43.582;1.456;2023-12-20T18:48:46;101393.69;;;9.89;100.00
73821;BME280;62150;43.582;1.456;2023-12-20T18:51:14;101391.41;;;10.25;100.00
73821;BME280;62150;43.582;1.456;2023-12-20T18:53:41;101387.25;;;10.16;100.00
73821;BME280;62150;43.582;1.456;2023-12-20T18:56:10;101387.25;;;10.16;100.00
73821;BME280;62150;43.582;1.456;2023-12-20T18:58:38;101397.78;;;10.01;100.00
73821;BME280;62150;43.582;1.456;2023-12-20T19:01:05;101397.69;;;10.05;100.00
73821;BME280;62150;43.582;1.456;2023-12-20T19:03:33;101399.47;;;10.03;100.00
73821;BME280;62150;43.582;1.456;2023-12-20T19:06:00;101404.06;;;9.83;100.00
73821;BME280;62150;43.582;1.456;2023-12-20T19:08:29;101409.56;;;10.13;100.00
73821;BME280;62150;43.582;1.456;2023-12-20T19:10:56;101408.94;;;10.00;100.00
73821;BME280;62150;43.582;1.456;2023-12-20T19:13:25;101402.63;;;10.18;100.00
73821;BME280;62150;43.582;1.456;2023-12-20T19:15:57;101408.72;;;10.11;100.00
73821;BME280;62150;43.582;1.456;2023-12-20T19:18:24;101404.06;;;9.83;100.00
73821;BME280;62150;43.582;1.456;2023-12-20T19:20:53;101398.28;;;10.23;100.00
73821;BME280;62150;43.582;1.456;2023-12-20T19:23:20;101406.53;;;10.40;100.00
73821;BME280;62150;43.582;1.456;2023-12-20T19:25:48;101411.78;;;9.80;100.00